LMML Airport Information

Runway Information
Runway 05 Length 7799 ft width 148 ft
Elevation 297 ft Threshold 0 ft Heading 56
Runway 23 Length 7799 ft Width 148 ft
Elevation 247 ft Threshold 0 ft Heading 236
Runway 13 Length 11627 ft width 197 ft
Elevation 256 ft Threshold 0 ft Heading 135
Runway 31 Length 11627 ft Width 197 ft
Elevation 230 ft Threshold 620 ft Heading 315
Airport Frequencies
Type APP Name APP Frequency 128.15 MHZ
Type Distance R Name Frequency 130.975 MHZ
Type Ground Name Ground Frequency 121.6 MHZ
Type Leaving Name Frequency 123.625 MHZ
Type Runway Name Runway Frequency 138.1 MHZ
Type Volmet Name Frequency 126.8 MHZ
Type Weather Name WX Frequency 127.4 MHZ
Airport Navaids
Type DME Name Malta Frequency 110500 KHZ
Type DME Name Luqa Frequency 109700 KHZ
Type NDB Name Luqa Frequency 416 KHZ
Type NDB Name Malta Frequency 395 KHZ
Airport Weather Information & NOTAM
Deprecated: The each() function is deprecated. This message will be suppressed on further calls in /storage/content/79/1005879/virtualnac.org/public_html/v2/lib/functions.php on line 164 ADDS - METARS form results

(1049 UTC 20 January 2021)
Data provider http://aviationweather.gov/metar/data/
 
METAR text: LMML 201045Z 21009KT 170V240 9999 FEW036 15/08 Q1029 NOSIG
Conditions at: LMML (LUQA/MALTA , MT) observed 1045 UTC 20 January 2021
Temperature: 15.0°C (59°F)
Dewpoint: 8.0°C (46°F) [RH = 63%]
Pressure (altimeter): 30.38 inches Hg (1029.0 mb)
Winds: from the SSW (210 degrees) at 10 MPH (9 knots; 4.6 m/s)
Visibility: 6 or more miles (10+ km)
Ceiling: at least 12,000 feet AGL
Clouds: few clouds at 3600 feet AGL
Weather: no significant weather observed at this time

METAR text: LMML 201015Z 21009KT 170V250 9999 FEW037 15/07 Q1029 NOSIG
Conditions at: LMML (LUQA/MALTA , MT) observed 1015 UTC 20 January 2021
Temperature: 15.0°C (59°F)
Dewpoint: 7.0°C (45°F) [RH = 59%]
Pressure (altimeter): 30.38 inches Hg (1029.0 mb)
Winds: from the SSW (210 degrees) at 10 MPH (9 knots; 4.6 m/s)
Visibility: 6 or more miles (10+ km)
Ceiling: at least 12,000 feet AGL
Clouds: few clouds at 3700 feet AGL
Weather: no significant weather observed at this time

Forecast for: LMML (LUQA/MALTA , MT)
Text: TAF LMML 200500Z 2006/2106 21014KT 9999 FEW025
Forecast period: 0600 UTC 20 January 2021 to 0600 UTC 21 January 2021
Forecast type: FROM: standard forecast or significant change
Winds: from the SSW (210 degrees) at 16 MPH (14 knots; 7.2 m/s)
Visibility: 6 or more miles (10+ km)
Ceiling: at least 12,000 feet AGL
Clouds: few clouds at 2500 feet AGL
Weather: no significant weather forecast for this period